createdAt,value
2022-09-28T01:22:57.345Z,6.57
2022-09-28T01:25:36.271Z,3.75
2022-09-28T01:28:09.165Z,3.15
2022-09-28T01:30:44.502Z,5.53
2022-09-28T01:33:17.780Z,7.82
2022-09-28T01:35:57.319Z,5.43
2022-09-28T01:38:31.142Z,8.77
2022-09-28T01:41:01.185Z,7.40
2022-09-28T01:43:29.522Z,4.75
2022-09-28T01:46:02.033Z,6.53
2022-09-28T01:48:37.969Z,7.53
2022-09-28T01:51:10.507Z,11.30
2022-09-28T01:53:44.876Z,8.77
2022-09-28T01:56:35.661Z,7.38
2022-09-28T01:59:27.196Z,3.20
2022-09-28T02:02:15.800Z,5.72
2022-09-28T02:04:51.885Z,4.32
2022-09-28T02:07:24.070Z,3.78
2022-09-28T02:09:56.233Z,4.60
2022-09-28T02:12:35.509Z,5.28
2022-09-28T02:15:14.631Z,8.23
2022-09-28T02:17:41.759Z,4.70
2022-09-28T02:20:08.971Z,3.72
2022-09-28T02:22:44.016Z,3.85
2022-09-28T02:25:23.145Z,6.22
2022-09-28T02:28:00.660Z,4.43
2022-09-28T02:30:29.516Z,6.15
2022-09-28T02:33:05.862Z,4.53
2022-09-28T02:35:36.552Z,3.05
2022-09-28T02:38:03.305Z,2.60
2022-09-28T02:43:20.217Z,5.68
2022-09-28T02:45:53.072Z,5.43
2022-09-28T02:48:43.643Z,3.30
2022-09-28T02:51:20.183Z,5.07
2022-09-28T02:53:49.697Z,4.72
2022-09-28T02:56:36.907Z,8.43
2022-09-28T02:59:25.419Z,4.13
2022-09-28T03:02:32.322Z,4.20
2022-09-28T03:05:18.842Z,3.92
2022-09-28T03:07:48.850Z,4.43
2022-09-28T03:10:37.301Z,3.85
2022-09-28T03:13:05.251Z,6.93
2022-09-28T03:15:36.321Z,6.45
2022-09-28T03:18:02.957Z,5.22
2022-09-28T03:20:30.909Z,5.97
2022-09-28T03:23:22.732Z,8.43
2022-09-28T03:25:44.177Z,12.90
2022-09-28T03:28:10.911Z,6.13
2022-09-28T03:33:04.419Z,8.32
2022-09-28T03:35:31.157Z,4.63
2022-09-28T03:40:27.197Z,4.53
2022-09-28T03:42:54.306Z,5.60
2022-09-28T03:45:20.873Z,7.20
2022-09-28T03:47:48.694Z,4.47
2022-09-28T03:50:18.284Z,4.85
2022-09-28T03:52:44.866Z,10.68
2022-09-28T03:55:14.710Z,5.78
2022-09-28T03:57:43.600Z,14.65
2022-09-28T04:00:10.947Z,5.47
2022-09-28T04:02:37.535Z,8.10
2022-09-28T04:05:04.989Z,10.85
2022-09-28T04:07:31.537Z,8.82
2022-09-28T04:09:58.358Z,8.45
2022-09-28T04:15:05.625Z,8.57
2022-09-28T04:17:36.512Z,9.30
2022-09-28T04:20:07.290Z,8.75
2022-09-28T04:22:37.510Z,6.72
2022-09-28T04:25:08.033Z,7.65
2022-09-28T04:27:53.151Z,8.73
2022-09-28T04:30:19.754Z,9.75
2022-09-28T04:32:47.628Z,8.55
2022-09-28T04:35:14.662Z,6.38
2022-09-28T04:37:41.569Z,7.72
2022-09-28T04:40:08.745Z,8.82
2022-09-28T04:42:37.029Z,10.00
2022-09-28T04:45:07.557Z,9.15
2022-09-28T04:47:37.033Z,7.10
2022-09-28T04:53:40.304Z,10.75
2022-09-28T04:59:03.263Z,10.00
2022-09-28T05:01:33.075Z,10.00
2022-09-28T05:04:00.000Z,10.13
2022-09-28T05:09:29.750Z,10.50
2022-09-28T05:12:21.614Z,9.95
2022-09-28T05:18:08.017Z,13.27
2022-09-28T05:20:44.285Z,8.20
2022-09-28T05:23:12.593Z,12.73
2022-09-28T05:25:49.684Z,14.23
2022-09-28T05:31:53.467Z,15.02
2022-09-28T05:34:35.823Z,13.23
2022-09-28T05:56:51.236Z,13.38
2022-09-28T06:00:01.087Z,12.60
2022-09-28T06:03:04.411Z,11.65
2022-09-28T11:48:07.331Z,1.67
2022-09-28T11:54:47.900Z,2.28
2022-09-28T11:57:54.371Z,3.95
2022-09-28T12:00:24.945Z,5.85
2022-09-28T12:03:42.163Z,2.05
2022-09-28T12:14:07.263Z,3.03
2022-09-28T12:17:06.004Z,4.35
2022-09-28T12:27:57.079Z,2.78
2022-09-28T12:38:39.044Z,2.35
2022-09-28T12:41:44.222Z,1.38
2022-09-28T12:44:20.890Z,1.88
2022-09-28T12:50:38.652Z,0.30
2022-09-28T12:53:43.235Z,1.50
2022-09-28T12:56:31.622Z,1.20
2022-09-28T12:59:01.136Z,1.98
2022-09-28T13:01:48.672Z,2.70
2022-09-28T13:04:44.448Z,2.45
2022-09-28T13:07:32.468Z,1.65
2022-09-28T13:10:05.218Z,0.57
2022-09-28T13:20:33.060Z,2.22
2022-09-28T13:23:17.583Z,0.50
2022-09-28T13:25:55.688Z,1.17
2022-09-28T13:28:27.554Z,1.10
2022-09-28T13:33:33.915Z,0.82
2022-09-28T13:36:00.910Z,2.45
2022-09-28T13:38:27.281Z,0.98
2022-09-28T13:41:06.260Z,0.40
2022-09-28T13:44:17.935Z,3.05
2022-09-28T13:47:12.027Z,0.95
2022-09-28T13:50:05.002Z,1.27
2022-09-28T13:52:39.972Z,3.53
2022-09-28T13:55:33.922Z,1.88
2022-09-28T14:05:46.303Z,1.30
2022-09-28T14:08:31.137Z,1.65
2022-09-28T14:11:48.405Z,1.30
2022-09-28T14:14:40.031Z,2.30
2022-09-28T14:17:21.791Z,0.73
2022-09-28T14:20:11.191Z,1.10
2022-09-28T14:22:51.607Z,2.08
2022-09-28T14:25:27.758Z,5.35
2022-09-28T14:28:19.489Z,1.48
2022-09-28T14:30:56.271Z,1.33
2022-09-28T14:33:28.100Z,3.28
2022-09-28T14:36:08.587Z,1.65
2022-09-28T14:39:07.466Z,1.60
2022-09-28T14:41:37.905Z,0.88
2022-09-28T14:44:10.391Z,1.05
2022-09-28T14:47:21.774Z,3.00
2022-09-28T14:50:00.594Z,1.15
2022-09-28T14:53:06.246Z,2.95
2022-09-28T14:55:40.940Z,1.90
2022-09-28T14:58:23.200Z,1.40
2022-09-28T15:00:56.203Z,5.95
2022-09-28T15:03:24.413Z,2.60
2022-09-28T15:05:51.204Z,1.33
2022-09-28T15:10:55.808Z,1.27
2022-09-28T15:13:33.815Z,2.25
2022-09-28T15:16:23.268Z,0.50
2022-09-28T15:19:07.163Z,2.33
2022-09-28T15:25:36.410Z,0.70
2022-09-28T15:28:25.135Z,4.60
2022-09-28T15:30:58.885Z,1.15
2022-09-28T15:33:53.967Z,1.27
2022-09-28T15:36:41.134Z,2.35
2022-09-28T15:39:15.785Z,0.75
2022-09-28T15:41:56.418Z,2.50
2022-09-28T15:44:36.347Z,1.98
2022-09-28T15:47:14.369Z,2.05
2022-09-28T15:49:56.874Z,2.22
2022-09-28T15:52:26.006Z,1.83
2022-09-28T15:54:54.152Z,4.25
2022-09-28T15:57:39.462Z,1.88
2022-09-28T16:00:28.806Z,4.45
2022-09-28T16:03:09.492Z,5.85
2022-09-28T16:06:08.390Z,2.30
2022-09-28T16:16:01.983Z,6.18
2022-09-28T16:18:30.656Z,6.90
2022-09-28T16:21:20.325Z,9.13
2022-09-28T16:23:52.635Z,4.15
2022-09-28T16:26:44.140Z,4.82
2022-09-28T16:29:35.898Z,4.55
2022-09-28T16:32:29.539Z,2.25
2022-09-28T16:35:42.087Z,2.65
2022-09-28T16:38:16.372Z,2.90
2022-09-28T16:41:02.904Z,2.70
2022-09-28T16:43:31.221Z,3.38
2022-09-28T16:46:18.221Z,1.95
2022-09-28T16:48:50.764Z,3.77
2022-09-28T16:51:24.217Z,3.53
2022-09-28T16:54:09.430Z,2.10
2022-09-28T16:57:04.732Z,3.60
2022-09-28T16:59:31.934Z,3.45
2022-09-28T17:01:59.178Z,2.05
2022-09-28T17:04:47.533Z,5.40
2022-09-28T17:07:15.394Z,1.92
2022-09-28T17:09:53.255Z,6.65
2022-09-28T17:12:23.092Z,3.13
2022-09-28T17:15:27.019Z,1.92
2022-09-28T21:28:00.276Z,7.88
2022-09-28T21:35:19.893Z,12.40
2022-09-28T21:37:46.739Z,9.05
2022-09-28T21:42:43.214Z,13.77
2022-09-28T21:45:12.429Z,8.05
2022-09-28T21:47:50.263Z,7.40
2022-09-28T21:50:16.942Z,8.20
2022-09-28T21:52:43.662Z,8.13
2022-09-28T21:55:10.410Z,8.50
2022-09-28T22:00:04.120Z,5.57
2022-09-28T22:02:37.281Z,14.43
2022-09-28T22:05:06.103Z,8.20
2022-09-28T22:07:40.420Z,7.70
2022-09-28T22:10:08.948Z,8.07
2022-09-28T22:12:41.156Z,13.55
2022-09-28T22:15:18.770Z,14.00
2022-09-28T22:17:45.609Z,6.80
2022-09-28T22:22:38.747Z,8.50
2022-09-28T22:25:08.972Z,8.43
2022-09-28T22:27:35.474Z,10.15
2022-09-28T22:30:04.263Z,18.98
2022-09-28T22:32:30.771Z,7.93
2022-09-28T22:34:57.640Z,8.32
2022-09-28T22:37:28.119Z,8.45
2022-09-28T22:39:55.553Z,7.15
2022-09-28T22:42:22.090Z,9.07
2022-09-28T22:44:49.132Z,8.35
2022-09-28T22:47:19.968Z,11.80
2022-09-28T22:49:49.168Z,13.45
2022-09-28T22:52:16.331Z,10.48
2022-09-28T22:54:43.196Z,11.80
2022-09-28T22:57:10.260Z,9.50
2022-09-28T22:59:42.570Z,8.23
2022-09-28T23:02:09.657Z,7.22
2022-09-28T23:04:36.550Z,10.82
2022-09-28T23:07:03.745Z,11.50
2022-09-28T23:09:39.843Z,8.90
2022-09-28T23:12:09.204Z,8.55
2022-09-28T23:14:38.795Z,9.55
2022-09-28T23:17:05.791Z,7.80
2022-09-28T23:19:33.823Z,11.38
2022-09-28T23:22:00.639Z,7.35
2022-09-28T23:26:58.988Z,12.13
2022-09-28T23:29:28.402Z,10.68
2022-09-28T23:32:00.738Z,9.25
2022-09-28T23:34:33.017Z,8.48
2022-09-28T23:37:03.557Z,7.93
2022-09-28T23:39:30.678Z,9.35
2022-09-28T23:42:00.417Z,10.80
2022-09-28T23:44:33.486Z,9.75
2022-09-28T23:47:03.756Z,12.60
2022-09-28T23:49:30.683Z,9.98
2022-09-28T23:52:02.892Z,8.88
2022-09-28T23:54:29.779Z,11.68
2022-09-28T23:56:58.384Z,9.48
2022-09-28T23:59:25.063Z,11.32
